Time;durP1;ratioP1;P1;durP2;ratioP2;P2;SDS_P1;SDS_P2;PMS_P1;PMS_P2;Temp;Humidity;BMP_temperature;BMP_pressure;BME280_temperature;BME280_humidity;BME280_pressure;Samples;Min_cycle;Max_cycle;Signal;HPM_P1;HPM_P2
2024/01/23 00:00:52;;;;;;;0.30;0.30;;;6.90;99.90;;;;;;5070298;28;20432;-89
2024/01/23 00:03:18;;;;;;;0.30;0.30;;;6.80;99.90;;;;;;5069054;28;20207;-90
2024/01/23 00:05:43;;;;;;;0.30;0.30;;;6.80;99.90;;;;;;5051923;28;20257;-89
2024/01/23 00:08:09;;;;;;;0.30;0.30;;;6.90;99.90;;;;;;5061177;28;20222;-90
2024/01/23 00:10:34;;;;;;;0.30;0.30;;;6.90;99.90;;;;;;5053095;28;20226;-91
2024/01/23 00:13:00;;;;;;;0.30;0.30;;;6.90;99.90;;;;;;5051873;28;20300;-91
2024/01/23 00:15:26;;;;;;;0.30;0.30;;;6.90;99.90;;;;;;5052629;28;20772;-89
2024/01/23 00:17:51;;;;;;;0.30;0.30;;;6.90;99.90;;;;;;5071659;28;20295;-89
2024/01/23 00:20:17;;;;;;;0.30;0.30;;;6.90;99.90;;;;;;5074567;28;20415;-88
2024/01/23 00:22:42;;;;;;;0.30;0.30;;;6.90;99.90;;;;;;5072211;28;20189;-89
2024/01/23 00:25:08;;;;;;;0.30;0.30;;;6.90;99.90;;;;;;5063891;28;20238;-89
2024/01/23 00:27:33;;;;;;;0.30;0.30;;;6.90;99.90;;;;;;5073265;28;20213;-89
2024/01/23 00:29:59;;;;;;;0.30;0.30;;;6.80;99.90;;;;;;5074139;28;20145;-89
2024/01/23 00:32:30;;;;;;;0.30;0.30;;;6.70;99.90;;;;;;5073780;28;20650;-89
2024/01/23 00:34:55;;;;;;;0.30;0.30;;;6.70;99.90;;;;;;5068472;28;20181;-89
2024/01/23 00:37:21;;;;;;;0.30;0.30;;;6.70;99.90;;;;;;5071286;28;20447;-89
2024/01/23 00:39:48;;;;;;;0.20;0.20;;;6.70;99.90;;;;;;5058633;28;20186;-88
2024/01/23 00:42:13;;;;;;;0.30;0.30;;;6.60;99.90;;;;;;5056727;28;20432;-88
2024/01/23 00:44:39;;;;;;;0.30;0.30;;;6.60;99.90;;;;;;5073055;28;20430;-89
2024/01/23 00:47:05;;;;;;;0.30;0.30;;;6.60;99.90;;;;;;5056046;28;20185;-89
2024/01/23 00:49:31;;;;;;;0.30;0.30;;;6.60;99.90;;;;;;5056555;28;20180;-90
2024/01/23 00:51:56;;;;;;;0.30;0.30;;;6.70;99.90;;;;;;5055886;28;20842;-91
2024/01/23 00:54:22;;;;;;;0.30;0.30;;;6.70;99.90;;;;;;5055317;28;20194;-88
2024/01/23 00:56:47;;;;;;;0.23;0.23;;;6.60;99.90;;;;;;5073969;28;20189;-89
2024/01/23 00:59:13;;;;;;;0.30;0.30;;;6.60;99.90;;;;;;5073466;28;20257;-91
2024/01/23 01:01:39;;;;;;;0.30;0.30;;;6.60;99.90;;;;;;5072878;28;20196;-88
2024/01/23 01:04:05;;;;;;;0.30;0.30;;;6.70;99.90;;;;;;5073230;28;20668;-89
2024/01/23 01:06:31;;;;;;;0.30;0.30;;;6.70;99.90;;;;;;5073355;28;20416;-89
2024/01/23 01:08:58;;;;;;;0.30;0.30;;;6.70;99.90;;;;;;5073601;28;20787;-89
2024/01/23 01:11:23;;;;;;;0.30;0.30;;;6.60;99.90;;;;;;5072362;28;20264;-90
2024/01/23 01:13:49;;;;;;;0.30;0.30;;;6.60;99.90;;;;;;5055200;28;20425;-89
2024/01/23 01:16:16;;;;;;;0.30;0.30;;;6.60;99.90;;;;;;5055224;28;20182;-88
2024/01/23 01:18:41;;;;;;;0.27;0.27;;;6.50;99.90;;;;;;5060434;28;20231;-89
2024/01/23 01:21:07;;;;;;;0.30;0.30;;;6.40;99.90;;;;;;5069967;28;21002;-87
2024/01/23 01:23:34;;;;;;;0.30;0.30;;;6.40;99.90;;;;;;5066927;28;20189;-90
2024/01/23 01:25:59;;;;;;;0.30;0.30;;;6.40;99.90;;;;;;5053801;28;20420;-90
2024/01/23 01:28:25;;;;;;;0.30;0.30;;;6.40;99.90;;;;;;5065900;28;20499;-89
2024/01/23 01:30:51;;;;;;;0.30;0.30;;;6.40;99.90;;;;;;5072974;28;20201;-89
2024/01/23 01:33:17;;;;;;;0.30;0.30;;;6.40;99.90;;;;;;5053963;28;20277;-91
2024/01/23 01:35:42;;;;;;;0.30;0.30;;;6.30;99.90;;;;;;5072758;28;20181;-89
2024/01/23 01:38:08;;;;;;;0.30;0.30;;;6.30;99.90;;;;;;5072167;28;20428;-89
2024/01/23 01:40:33;;;;;;;0.30;0.30;;;6.30;99.90;;;;;;5054803;28;20201;-89
2024/01/23 01:42:59;;;;;;;0.30;0.30;;;6.30;99.90;;;;;;5055269;28;20230;-89
2024/01/23 01:45:25;;;;;;;0.30;0.30;;;6.30;99.90;;;;;;5068952;28;20235;-89
2024/01/23 01:47:52;;;;;;;0.30;0.30;;;6.20;99.90;;;;;;5071891;28;20853;-90
2024/01/23 01:50:18;;;;;;;0.30;0.30;;;6.30;99.90;;;;;;5050986;28;20238;-90
2024/01/23 01:52:44;;;;;;;0.30;0.30;;;6.20;99.90;;;;;;5047858;28;20940;-89
2024/01/23 01:55:09;;;;;;;0.30;0.30;;;6.30;99.90;;;;;;5072774;28;20197;-89
2024/01/23 01:57:38;;;;;;;0.30;0.30;;;6.20;99.90;;;;;;5072620;28;20176;-88
2024/01/23 02:00:06;;;;;;;0.30;0.30;;;6.30;99.90;;;;;;5071675;28;20228;-88
2024/01/23 02:02:32;;;;;;;0.30;0.30;;;6.30;99.90;;;;;;5052770;28;21239;-89
2024/01/23 02:04:57;;;;;;;0.30;0.30;;;6.30;99.90;;;;;;5072232;28;20516;-88
2024/01/23 02:07:23;;;;;;;0.30;0.30;;;6.20;99.90;;;;;;5072299;28;20181;-89
2024/01/23 02:09:48;;;;;;;0.30;0.30;;;6.30;99.90;;;;;;5072329;28;20185;-89
2024/01/23 02:12:14;;;;;;;0.30;0.30;;;6.30;99.90;;;;;;5072400;28;20218;-88
2024/01/23 02:14:39;;;;;;;0.30;0.30;;;6.30;99.90;;;;;;5071744;28;20409;-88
2024/01/23 02:17:05;;;;;;;0.30;0.30;;;6.30;99.90;;;;;;5053175;28;20184;-88
2024/01/23 02:19:30;;;;;;;0.30;0.30;;;6.20;99.90;;;;;;5053649;28;20707;-89
2024/01/23 02:21:56;;;;;;;0.40;0.40;;;6.10;99.90;;;;;;5071590;28;20928;-89
2024/01/23 02:24:21;;;;;;;0.30;0.30;;;6.10;99.90;;;;;;5071314;28;20193;-90
2024/01/23 02:26:47;;;;;;;0.30;0.30;;;6.10;99.90;;;;;;5071300;28;20178;-89
2024/01/23 02:29:14;;;;;;;0.30;0.30;;;6.10;99.90;;;;;;5071857;28;20263;-89
2024/01/23 02:31:40;;;;;;;0.40;0.40;;;6.10;99.90;;;;;;5071809;28;20615;-89
2024/01/23 02:34:05;;;;;;;0.30;0.30;;;6.00;99.90;;;;;;5053828;28;20524;-89
2024/01/23 02:36:34;;;;;;;0.40;0.40;;;6.00;99.90;;;;;;5068836;28;20200;-89
2024/01/23 02:39:00;;;;;;;0.33;0.33;;;6.10;99.90;;;;;;5058982;28;20178;-90
2024/01/23 02:41:25;;;;;;;0.33;0.33;;;6.10;99.90;;;;;;5067051;28;20446;-89
2024/01/23 02:43:51;;;;;;;0.30;0.30;;;6.10;99.90;;;;;;5063902;28;20296;-89
2024/01/23 02:46:16;;;;;;;0.40;0.40;;;6.10;99.90;;;;;;5070880;28;20669;-89
2024/01/23 02:48:43;;;;;;;0.30;0.30;;;6.10;99.90;;;;;;5071223;28;20221;-88
2024/01/23 02:51:09;;;;;;;0.30;0.30;;;6.10;99.90;;;;;;5071087;28;20606;-89
2024/01/23 02:53:34;;;;;;;0.30;0.30;;;6.10;99.90;;;;;;5067245;28;20507;-89
2024/01/23 02:56:00;;;;;;;0.40;0.40;;;6.10;99.90;;;;;;5071532;28;20193;-89
2024/01/23 02:58:25;;;;;;;0.30;0.30;;;6.10;99.90;;;;;;5071477;28;20563;-89
2024/01/23 03:00:51;;;;;;;0.30;0.30;;;6.10;99.90;;;;;;5070423;28;20174;-89
2024/01/23 03:03:16;;;;;;;0.37;0.37;;;6.10;99.90;;;;;;5071087;28;20554;-89
2024/01/23 03:05:42;;;;;;;0.30;0.30;;;6.10;99.90;;;;;;5053273;28;20664;-89
2024/01/23 03:08:07;;;;;;;0.30;0.30;;;6.20;99.90;;;;;;5070914;28;20224;-88
2024/01/23 03:10:33;;;;;;;0.37;0.37;;;6.10;99.90;;;;;;5067533;28;20218;-89
2024/01/23 03:12:58;;;;;;;0.30;0.30;;;6.10;99.90;;;;;;5070486;28;20257;-89
2024/01/23 03:15:24;;;;;;;0.30;0.30;;;6.10;99.90;;;;;;5053006;28;20264;-88
2024/01/23 03:17:49;;;;;;;0.30;0.30;;;6.10;99.90;;;;;;5071021;28;20178;-89
2024/01/23 03:20:15;;;;;;;0.30;0.30;;;6.00;99.90;;;;;;5070584;28;20553;-89
2024/01/23 03:22:40;;;;;;;0.40;0.40;;;6.00;99.90;;;;;;5067158;28;20197;-89
2024/01/23 03:25:06;;;;;;;0.30;0.30;;;5.90;99.90;;;;;;5063634;28;20185;-90
2024/01/23 03:27:32;;;;;;;0.30;0.30;;;5.90;99.90;;;;;;5070173;28;20319;-88
2024/01/23 03:29:57;;;;;;;0.30;0.30;;;5.80;99.90;;;;;;5070048;28;20185;-89
2024/01/23 03:32:23;;;;;;;0.30;0.30;;;5.80;99.90;;;;;;5069957;28;20196;-89
2024/01/23 03:34:51;;;;;;;0.30;0.30;;;5.80;99.90;;;;;;5070344;28;20197;-89
2024/01/23 03:37:16;;;;;;;0.30;0.30;;;5.80;99.90;;;;;;5070881;28;20251;-88
2024/01/23 03:39:42;;;;;;;0.30;0.30;;;5.70;99.90;;;;;;5052519;28;21050;-87
2024/01/23 03:42:07;;;;;;;0.30;0.30;;;5.70;99.90;;;;;;5050661;28;20188;-89
2024/01/23 03:44:33;;;;;;;0.30;0.30;;;5.70;99.90;;;;;;5068293;28;20186;-89
2024/01/23 03:46:59;;;;;;;0.40;0.40;;;5.70;99.90;;;;;;5049677;28;20189;-89
2024/01/23 03:49:25;;;;;;;0.30;0.30;;;5.70;99.90;;;;;;5067811;28;20739;-89
2024/01/23 03:51:51;;;;;;;0.30;0.30;;;5.70;99.90;;;;;;5051983;28;20181;-88
2024/01/23 03:54:17;;;;;;;0.30;0.30;;;5.50;99.90;;;;;;5065493;28;20431;-88
2024/01/23 03:56:42;;;;;;;0.30;0.30;;;5.60;99.90;;;;;;5047059;28;20481;-88
2024/01/23 03:59:08;;;;;;;0.30;0.30;;;5.60;99.90;;;;;;5069175;28;20413;-87
2024/01/23 04:01:34;;;;;;;0.40;0.40;;;5.50;99.90;;;;;;5049058;28;20209;-87
2024/01/23 04:04:00;;;;;;;0.30;0.30;;;5.40;99.90;;;;;;5067211;28;20170;-89
2024/01/23 04:06:25;;;;;;;0.30;0.30;;;5.50;99.90;;;;;;5069352;28;20212;-88
2024/01/23 04:08:51;;;;;;;0.30;0.30;;;5.40;99.90;;;;;;5070263;28;20472;-90
2024/01/23 04:11:16;;;;;;;0.30;0.30;;;5.40;99.90;;;;;;5052561;28;20592;-88
2024/01/23 04:13:42;;;;;;;0.30;0.30;;;5.50;99.90;;;;;;5070440;28;20268;-87
2024/01/23 04:16:08;;;;;;;0.30;0.30;;;5.40;99.90;;;;;;5062120;28;20273;-88
2024/01/23 04:18:34;;;;;;;0.30;0.30;;;5.40;99.90;;;;;;5063797;28;20269;-88
2024/01/23 04:21:00;;;;;;;0.30;0.30;;;5.50;99.90;;;;;;5070078;28;20185;-88
2024/01/23 04:23:25;;;;;;;0.37;0.37;;;5.50;99.90;;;;;;5050459;28;20420;-88
2024/01/23 04:25:51;;;;;;;0.30;0.30;;;5.50;99.90;;;;;;5070107;28;20202;-88
2024/01/23 04:28:16;;;;;;;0.30;0.30;;;5.50;99.90;;;;;;5051272;28;20217;-89
2024/01/23 04:30:42;;;;;;;0.30;0.30;;;5.40;99.90;;;;;;5058618;28;20254;-89
2024/01/23 04:33:08;;;;;;;0.30;0.30;;;5.40;99.90;;;;;;5068004;28;20261;-88
2024/01/23 04:35:34;;;;;;;0.30;0.30;;;5.40;99.90;;;;;;5070130;28;20280;-88
2024/01/23 04:38:00;;;;;;;0.30;0.30;;;5.40;99.90;;;;;;5069672;28;20240;-88
2024/01/23 04:40:25;;;;;;;0.40;0.40;;;5.50;99.90;;;;;;5052202;28;20928;-91
2024/01/23 04:42:51;;;;;;;0.30;0.30;;;5.40;99.90;;;;;;5070039;28;20564;-89
2024/01/23 04:45:16;;;;;;;0.30;0.30;;;5.40;99.90;;;;;;5069435;28;20260;-89
2024/01/23 04:47:42;;;;;;;0.30;0.30;;;5.40;99.90;;;;;;5066632;28;20230;-88
2024/01/23 04:50:08;;;;;;;0.30;0.30;;;5.40;99.90;;;;;;5050290;28;20185;-88
2024/01/23 04:52:34;;;;;;;0.40;0.40;;;5.40;99.90;;;;;;5068154;28;20200;-87
2024/01/23 04:54:59;;;;;;;0.40;0.40;;;5.50;99.90;;;;;;5052610;28;20761;-87
2024/01/23 04:57:31;;;;;;;0.30;0.30;;;5.40;99.90;;;;;;5071048;28;20231;-89
2024/01/23 04:59:59;;;;;;;0.30;0.30;;;5.40;99.90;;;;;;5052981;28;20232;-88
2024/01/23 05:02:26;;;;;;;0.30;0.30;;;5.50;99.90;;;;;;5068853;28;20467;-90
2024/01/23 05:04:52;;;;;;;0.30;0.30;;;5.50;99.90;;;;;;5073142;28;20428;-88
2024/01/23 05:07:17;;;;;;;0.40;0.40;;;5.50;99.90;;;;;;5072939;28;21163;-89
2024/01/23 05:09:43;;;;;;;0.30;0.30;;;5.50;99.90;;;;;;5073286;28;20265;-89
2024/01/23 05:12:09;;;;;;;0.30;0.30;;;5.50;99.90;;;;;;5073056;28;20654;-88
2024/01/23 05:14:35;;;;;;;0.30;0.30;;;5.40;99.90;;;;;;5055158;28;20189;-89
2024/01/23 05:17:00;;;;;;;0.30;0.30;;;5.40;99.90;;;;;;5071960;28;20412;-89
2024/01/23 05:19:27;;;;;;;0.30;0.30;;;5.40;99.90;;;;;;5071800;28;20186;-88
2024/01/23 05:21:53;;;;;;;0.30;0.30;;;5.40;99.90;;;;;;5072666;28;20189;-88
2024/01/23 05:24:18;;;;;;;0.30;0.30;;;5.40;99.90;;;;;;5054562;28;20514;-88
2024/01/23 05:26:44;;;;;;;0.30;0.30;;;5.40;99.90;;;;;;5065655;28;20190;-88
2024/01/23 05:29:09;;;;;;;0.30;0.30;;;5.40;99.90;;;;;;5035465;28;20233;-89
2024/01/23 05:31:35;;;;;;;0.40;0.40;;;5.40;99.90;;;;;;5061692;28;20182;-88
2024/01/23 05:34:00;;;;;;;0.30;0.30;;;5.40;99.90;;;;;;5071607;28;20190;-88
2024/01/23 05:36:26;;;;;;;0.30;0.30;;;5.50;99.90;;;;;;5072963;28;20182;-89
2024/01/23 05:38:51;;;;;;;0.30;0.30;;;5.50;99.90;;;;;;5073412;28;20194;-88
2024/01/23 05:41:17;;;;;;;0.30;0.30;;;5.50;99.90;;;;;;5073015;28;20190;-89
2024/01/23 05:43:43;;;;;;;0.30;0.30;;;5.50;99.90;;;;;;5052253;28;20178;-89
2024/01/23 05:46:08;;;;;;;0.30;0.30;;;5.50;99.90;;;;;;5071443;28;20464;-88
2024/01/23 05:48:34;;;;;;;0.30;0.30;;;5.50;99.90;;;;;;5070379;28;20228;-88
2024/01/23 05:50:59;;;;;;;0.30;0.30;;;5.60;99.90;;;;;;5069982;28;20193;-87
2024/01/23 05:53:25;;;;;;;0.40;0.40;;;5.60;99.90;;;;;;5053166;28;20267;-90
2024/01/23 05:55:50;;;;;;;0.30;0.30;;;5.60;99.90;;;;;;5057574;28;20189;-89
2024/01/23 05:58:16;;;;;;;0.30;0.30;;;5.70;99.90;;;;;;5068985;28;20216;-89
2024/01/23 06:00:41;;;;;;;0.40;0.40;;;5.70;99.90;;;;;;5068690;28;20681;-89
2024/01/23 06:03:07;;;;;;;0.30;0.30;;;5.60;99.90;;;;;;5069290;28;20244;-89
2024/01/23 06:05:33;;;;;;;0.30;0.30;;;5.60;99.90;;;;;;5071659;28;20783;-88
2024/01/23 06:07:58;;;;;;;0.30;0.30;;;5.70;99.90;;;;;;5069858;28;20327;-89
2024/01/23 06:10:23;;;;;;;0.30;0.30;;;5.60;99.90;;;;;;5067461;28;20232;-87
2024/01/23 06:12:49;;;;;;;0.30;0.30;;;5.70;99.90;;;;;;5068104;28;20182;-88
2024/01/23 06:15:15;;;;;;;0.27;0.27;;;5.70;99.90;;;;;;5070090;28;20703;-89
2024/01/23 06:17:40;;;;;;;0.30;0.30;;;5.80;99.90;;;;;;5069199;28;20670;-88
2024/01/23 06:20:07;;;;;;;0.30;0.30;;;5.80;99.90;;;;;;5072604;28;20235;-91
2024/01/23 06:22:34;;;;;;;0.30;0.30;;;5.80;99.90;;;;;;5053257;28;20231;-88
2024/01/23 06:25:20;;;;;;;0.30;0.30;;;5.90;99.90;;;;;;5050414;28;20459;-88
2024/01/23 06:27:45;;;;;;;0.30;0.30;;;5.90;99.90;;;;;;5071206;28;20476;-88
2024/01/23 06:30:13;;;;;;;0.30;0.30;;;5.80;99.90;;;;;;5071850;28;20795;-89
2024/01/23 06:32:39;;;;;;;0.30;0.30;;;5.80;99.90;;;;;;5066146;28;20274;-90
2024/01/23 06:35:06;;;;;;;0.30;0.30;;;5.80;99.90;;;;;;5044924;28;20516;-88
2024/01/23 06:37:31;;;;;;;0.30;0.30;;;5.70;99.90;;;;;;5053642;28;20459;-91
2024/01/23 06:39:57;;;;;;;0.30;0.30;;;5.70;99.90;;;;;;5069399;28;20443;-86
2024/01/23 06:42:22;;;;;;;0.30;0.30;;;5.70;99.90;;;;;;5071200;28;20235;-90
2024/01/23 06:44:48;;;;;;;0.30;0.30;;;5.80;99.90;;;;;;5045377;28;20229;-87
2024/01/23 06:47:14;;;;;;;0.30;0.30;;;5.80;99.90;;;;;;5051016;28;20188;-89
2024/01/23 06:49:39;;;;;;;0.30;0.30;;;5.80;99.90;;;;;;5071264;28;20280;-89
2024/01/23 06:52:05;;;;;;;0.30;0.30;;;5.80;99.90;;;;;;5053437;28;20225;-87
2024/01/23 06:54:30;;;;;;;0.30;0.30;;;5.80;99.90;;;;;;5068545;28;20189;-88
2024/01/23 06:56:56;;;;;;;0.30;0.30;;;5.80;99.90;;;;;;5053949;28;20212;-89
2024/01/23 06:59:21;;;;;;;0.20;0.20;;;5.80;99.90;;;;;;5053757;28;20265;-90
2024/01/23 07:01:47;;;;;;;0.30;0.30;;;5.80;99.90;;;;;;5050935;28;20868;-87
2024/01/23 07:04:12;;;;;;;0.30;0.30;;;5.80;99.90;;;;;;5050771;28;20185;-89
2024/01/23 07:06:38;;;;;;;0.30;0.30;;;5.90;99.90;;;;;;5053281;28;20197;-89
2024/01/23 07:09:06;;;;;;;0.30;0.30;;;5.80;99.90;;;;;;5071561;28;20201;-90
2024/01/23 07:11:32;;;;;;;0.30;0.30;;;5.90;99.90;;;;;;5070795;28;20283;-88
2024/01/23 07:13:59;;;;;;;0.30;0.30;;;6.00;99.90;;;;;;5071459;28;20459;-89
2024/01/23 07:16:25;;;;;;;0.20;0.20;;;6.00;99.90;;;;;;5052487;28;20178;-89
2024/01/23 07:18:51;;;;;;;0.30;0.30;;;6.00;99.90;;;;;;5070613;28;20438;-89
2024/01/23 07:21:16;;;;;;;0.30;0.30;;;6.10;99.90;;;;;;5069103;28;20582;-91
2024/01/23 07:23:42;;;;;;;0.30;0.30;;;6.10;99.90;;;;;;5052309;28;20185;-88
2024/01/23 07:26:07;;;;;;;0.30;0.30;;;6.10;99.90;;;;;;5069496;28;20206;-90
2024/01/23 07:28:33;;;;;;;0.30;0.30;;;6.10;99.90;;;;;;5070491;28;20220;-89
2024/01/23 07:30:59;;;;;;;0.20;0.20;;;6.00;99.90;;;;;;5069250;28;20213;-89
2024/01/23 07:33:24;;;;;;;0.30;0.30;;;6.10;99.90;;;;;;5065773;28;20252;-88
2024/01/23 07:35:50;;;;;;;0.30;0.30;;;6.10;99.90;;;;;;5070506;28;20538;-87
2024/01/23 07:38:16;;;;;;;0.30;0.30;;;6.00;99.90;;;;;;5059584;28;20558;-87
2024/01/23 07:40:41;;;;;;;0.30;0.30;;;6.00;99.90;;;;;;5067806;28;21013;-88
2024/01/23 07:43:07;;;;;;;0.30;0.30;;;6.00;99.90;;;;;;5055493;28;20460;-88
2024/01/23 07:45:33;;;;;;;0.30;0.30;;;6.00;99.90;;;;;;5065402;28;20189;-86
2024/01/23 07:47:59;;;;;;;0.30;0.30;;;5.90;99.90;;;;;;5070593;28;21032;-88
2024/01/23 07:50:24;;;;;;;0.30;0.30;;;6.00;99.90;;;;;;5052192;28;20196;-89
2024/01/23 07:52:50;;;;;;;0.30;0.30;;;6.00;99.90;;;;;;5063635;28;20186;-86
2024/01/23 07:55:16;;;;;;;0.30;0.30;;;6.00;99.90;;;;;;5050438;28;20181;-87
2024/01/23 07:57:41;;;;;;;0.30;0.30;;;6.00;99.90;;;;;;5051285;28;20188;-87
2024/01/23 08:00:07;;;;;;;0.40;0.40;;;6.00;99.90;;;;;;5064521;28;20178;-86
2024/01/23 08:02:33;;;;;;;0.30;0.30;;;6.00;99.90;;;;;;5064996;28;20865;-86
2024/01/23 08:04:59;;;;;;;0.30;0.30;;;6.00;99.90;;;;;;5047911;28;20440;-86
2024/01/23 08:07:27;;;;;;;0.30;0.30;;;6.00;99.90;;;;;;5069692;28;20213;-87
2024/01/23 08:09:54;;;;;;;0.30;0.30;;;6.00;99.90;;;;;;5069784;28;20420;-87
2024/01/23 08:12:20;;;;;;;0.30;0.30;;;6.10;99.90;;;;;;5048213;28;20437;-86
2024/01/23 08:14:45;;;;;;;0.20;0.20;;;6.10;99.90;;;;;;5049761;28;20478;-86
2024/01/23 08:17:11;;;;;;;0.30;0.30;;;6.10;99.90;;;;;;5027625;28;20557;-87
2024/01/23 08:19:39;;;;;;;0.23;0.23;;;6.10;99.90;;;;;;5050209;28;20171;-87
2024/01/23 08:22:05;;;;;;;0.30;0.30;;;6.20;99.90;;;;;;5030700;28;20436;-86
2024/01/23 08:24:31;;;;;;;0.30;0.30;;;6.10;99.90;;;;;;5047989;28;20440;-86
2024/01/23 08:26:56;;;;;;;0.30;0.30;;;6.20;99.90;;;;;;5046439;28;20504;-87
2024/01/23 08:29:22;;;;;;;0.30;0.30;;;6.20;99.90;;;;;;5045986;28;20214;-86
2024/01/23 08:31:48;;;;;;;0.50;0.50;;;6.20;99.90;;;;;;5031515;28;20218;-85
2024/01/23 08:34:13;;;;;;;0.30;0.30;;;6.10;99.90;;;;;;5030872;28;20221;-87
2024/01/23 08:36:42;;;;;;;0.30;0.30;;;6.20;99.90;;;;;;5032259;28;20214;-85
2024/01/23 08:39:08;;;;;;;0.30;0.30;;;6.20;99.90;;;;;;5032868;28;20187;-87
2024/01/23 08:41:33;;;;;;;0.30;0.30;;;6.20;99.90;;;;;;5052819;28;20993;-86
2024/01/23 08:43:59;;;;;;;0.30;0.30;;;6.30;99.90;;;;;;5035287;28;20324;-86
2024/01/23 08:46:24;;;;;;;0.20;0.20;;;6.40;99.90;;;;;;5049865;28;20217;-86
2024/01/23 08:48:50;;;;;;;0.20;0.20;;;6.30;99.90;;;;;;5048093;28;20363;-86
2024/01/23 08:51:16;;;;;;;0.30;0.30;;;6.40;99.90;;;;;;5052817;28;20190;-86
2024/01/23 08:53:42;;;;;;;0.30;0.30;;;6.40;99.90;;;;;;5052395;28;20578;-85
2024/01/23 08:56:08;;;;;;;0.30;0.30;;;6.40;99.90;;;;;;5047330;28;20429;-86
2024/01/23 08:58:33;;;;;;;0.30;0.30;;;6.40;99.90;;;;;;5052952;28;20199;-88
2024/01/23 09:00:59;;;;;;;0.30;0.30;;;6.40;99.90;;;;;;5050126;28;20190;-87
2024/01/23 09:03:24;;;;;;;0.30;0.30;;;6.30;99.90;;;;;;5037093;28;20189;-88
2024/01/23 09:05:50;;;;;;;0.30;0.30;;;6.20;99.90;;;;;;5045787;28;20207;-87
2024/01/23 09:08:16;;;;;;;0.30;0.30;;;6.30;99.90;;;;;;5034185;28;20207;-88
2024/01/23 09:10:42;;;;;;;0.30;0.30;;;6.40;99.90;;;;;;5055604;28;20569;-87
2024/01/23 09:13:07;;;;;;;0.30;0.30;;;6.40;99.90;;;;;;5072707;28;20435;-87
2024/01/23 09:15:33;;;;;;;0.27;0.27;;;6.50;99.90;;;;;;5068001;28;20248;-88
2024/01/23 09:17:59;;;;;;;0.30;0.30;;;6.50;99.90;;;;;;5073495;28;20712;-87
2024/01/23 09:20:24;;;;;;;0.30;0.30;;;6.60;99.90;;;;;;5070410;28;20642;-87
2024/01/23 09:22:50;;;;;;;0.30;0.30;;;6.70;99.90;;;;;;5063500;28;20931;-87
2024/01/23 09:25:17;;;;;;;0.30;0.30;;;6.70;99.90;;;;;;5073548;28;20182;-87
2024/01/23 09:27:43;;;;;;;0.30;0.30;;;6.80;99.90;;;;;;5071435;28;20482;-89
2024/01/23 09:30:09;;;;;;;0.30;0.30;;;6.70;99.90;;;;;;5066619;28;20448;-88
2024/01/23 09:32:35;;;;;;;0.30;0.30;;;6.80;99.90;;;;;;5053554;28;20839;-87
2024/01/23 09:35:00;;;;;;;0.30;0.30;;;6.80;99.90;;;;;;5039734;28;20433;-89
2024/01/23 09:37:27;;;;;;;0.30;0.30;;;6.70;99.90;;;;;;5052604;28;20186;-89
2024/01/23 09:39:54;;;;;;;0.30;0.30;;;6.80;99.90;;;;;;5069586;28;20432;-88
2024/01/23 09:42:21;;;;;;;0.30;0.30;;;6.80;99.90;;;;;;5069083;28;20519;-89
2024/01/23 09:44:47;;;;;;;0.30;0.30;;;6.80;99.90;;;;;;5067243;28;20440;-87
2024/01/23 09:47:15;;;;;;;0.30;0.30;;;6.80;99.90;;;;;;5042027;28;20509;-87
2024/01/23 09:49:42;;;;;;;0.30;0.30;;;6.80;99.90;;;;;;5054462;28;20218;-85
2024/01/23 09:52:09;;;;;;;0.30;0.30;;;6.90;99.90;;;;;;5041760;28;20552;-81
2024/01/23 09:54:35;;;;;;;0.30;0.30;;;6.80;99.90;;;;;;5042777;28;20432;-81
2024/01/23 09:57:01;;;;;;;0.20;0.20;;;6.80;99.90;;;;;;5060252;28;20433;-81
2024/01/23 09:59:27;;;;;;;0.20;0.20;;;6.90;99.90;;;;;;5041448;28;20198;-80
2024/01/23 10:01:53;;;;;;;0.30;0.30;;;6.90;99.90;;;;;;5042883;28;20202;-80
2024/01/23 10:04:21;;;;;;;0.30;0.30;;;6.90;99.90;;;;;;5066318;28;20475;-90
2024/01/23 10:06:47;;;;;;;0.20;0.20;;;7.00;99.90;;;;;;5073314;28;20528;-91
2024/01/23 10:09:13;;;;;;;0.40;0.40;;;7.10;99.90;;;;;;5072591;28;20959;-91
2024/01/23 10:11:38;;;;;;;0.30;0.30;;;7.10;99.90;;;;;;5073163;28;20229;-87
2024/01/23 10:14:06;;;;;;;0.30;0.30;;;7.10;99.90;;;;;;5073254;28;20255;-91
2024/01/23 10:16:32;;;;;;;0.30;0.30;;;7.10;99.90;;;;;;5059129;28;20428;-90
2024/01/23 10:18:57;;;;;;;0.20;0.20;;;7.10;99.90;;;;;;5051923;28;20444;-89
2024/01/23 10:21:24;;;;;;;0.20;0.20;;;7.10;99.90;;;;;;5070356;28;20182;-89
2024/01/23 10:23:50;;;;;;;0.30;0.30;;;7.10;99.90;;;;;;5072115;28;20223;-89
2024/01/23 10:26:16;;;;;;;0.30;0.30;;;7.20;99.90;;;;;;5072317;28;20462;-89
2024/01/23 10:28:46;;;;;;;0.30;0.30;;;7.20;99.90;;;;;;5071816;28;20476;-88
2024/01/23 10:31:12;;;;;;;0.20;0.20;;;7.30;99.90;;;;;;5071243;28;20432;-87
2024/01/23 10:33:42;;;;;;;0.30;0.30;;;7.30;99.90;;;;;;5062500;28;20492;-87
2024/01/23 10:36:08;;;;;;;0.20;0.20;;;7.40;99.90;;;;;;5072141;28;20962;-87
2024/01/23 10:38:37;;;;;;;0.20;0.20;;;7.70;99.90;;;;;;5068840;28;20494;-88
2024/01/23 10:41:07;;;;;;;0.30;0.30;;;7.60;99.90;;;;;;5071169;28;20503;-88
2024/01/23 10:43:34;;;;;;;0.30;0.30;;;7.70;99.90;;;;;;5070745;28;20427;-88
2024/01/23 10:46:03;;;;;;;0.20;0.20;;;8.10;99.90;;;;;;5053579;28;20804;-88
2024/01/23 10:48:33;;;;;;;0.20;0.20;;;8.20;99.90;;;;;;5071400;28;20536;-88
2024/01/23 10:51:04;;;;;;;0.20;0.20;;;8.10;99.90;;;;;;5063557;28;20440;-87
2024/01/23 10:53:41;;;;;;;0.20;0.20;;;8.10;99.90;;;;;;5050608;28;20491;-90
2024/01/23 10:56:13;;;;;;;0.20;0.20;;;8.10;99.90;;;;;;5069570;28;20442;-88
2024/01/23 10:58:41;;;;;;;0.20;0.20;;;8.00;99.90;;;;;;5072172;28;20466;-88
2024/01/23 11:01:10;;;;;;;0.20;0.20;;;7.90;99.90;;;;;;5070691;28;20433;-87
2024/01/23 11:03:36;;;;;;;0.20;0.20;;;8.30;99.90;;;;;;5072127;28;20408;-90
2024/01/23 11:06:12;;;;;;;0.20;0.20;;;8.70;99.90;;;;;;5068649;28;20531;-88
2024/01/23 11:08:45;;;;;;;0.20;0.20;;;9.10;99.90;;;;;;5068309;28;20467;-88
2024/01/23 11:11:24;;;;;;;0.20;0.20;;;9.00;99.90;;;;;;5069006;28;20511;-89
2024/01/23 11:14:00;;;;;;;0.20;0.20;;;9.10;99.90;;;;;;5049895;28;20475;-89
2024/01/23 11:16:28;;;;;;;0.20;0.20;;;9.20;99.90;;;;;;5068805;28;20538;-87
2024/01/23 11:18:54;;;;;;;0.20;0.20;;;9.60;99.90;;;;;;5071680;28;20419;-88
2024/01/23 11:21:22;;;;;;;0.20;0.20;;;9.60;99.90;;;;;;5069130;28;20443;-88
2024/01/23 11:23:58;;;;;;;0.30;0.30;;;9.40;99.90;;;;;;5059605;28;20408;-86
2024/01/23 11:26:26;;;;;;;0.20;0.20;;;9.30;99.90;;;;;;5050078;28;20454;-85
2024/01/23 11:29:04;;;;;;;0.20;0.20;;;9.40;99.90;;;;;;5069962;28;20484;-84
2024/01/23 11:31:38;;;;;;;0.20;0.20;;;9.10;99.90;;;;;;5069124;28;20904;-85
2024/01/23 11:34:27;;;;;;;0.20;0.20;;;8.80;99.90;;;;;;5044732;28;20432;-86
2024/01/23 11:36:53;;;;;;;0.20;0.20;;;8.50;99.90;;;;;;5047001;28;20433;-86
2024/01/23 11:39:23;;;;;;;0.27;0.27;;;8.30;99.90;;;;;;5050674;28;20511;-86
2024/01/23 11:41:50;;;;;;;0.20;0.20;;;8.30;99.90;;;;;;5068880;28;20473;-86
2024/01/23 11:44:16;;;;;;;0.20;0.20;;;8.30;99.90;;;;;;5066968;28;20924;-87
2024/01/23 11:46:43;;;;;;;0.20;0.20;;;8.20;99.90;;;;;;5067920;28;20489;-87
2024/01/23 11:49:12;;;;;;;0.20;0.20;;;8.10;99.90;;;;;;5069782;28;20480;-86
2024/01/23 11:51:38;;;;;;;0.20;0.20;;;7.90;99.90;;;;;;5070221;28;20444;-86
2024/01/23 11:54:11;;;;;;;0.30;0.30;;;8.00;99.90;;;;;;5069249;28;20468;-86
2024/01/23 11:56:38;;;;;;;0.20;0.20;;;8.00;99.90;;;;;;5052113;28;20432;-88
2024/01/23 11:59:04;;;;;;;0.20;0.20;;;8.00;99.90;;;;;;5069143;28;20428;-85
2024/01/23 12:01:31;;;;;;;0.20;0.20;;;8.00;99.90;;;;;;5070480;28;20416;-87
2024/01/23 12:03:57;;;;;;;0.20;0.20;;;8.10;99.90;;;;;;5070483;28;20178;-87
2024/01/23 12:06:25;;;;;;;0.30;0.30;;;8.00;99.90;;;;;;5051335;28;20784;-86
2024/01/23 12:08:51;;;;;;;0.20;0.20;;;8.20;99.90;;;;;;5068226;28;20498;-86
2024/01/23 12:11:17;;;;;;;0.20;0.20;;;8.60;99.90;;;;;;5069314;28;20517;-83
2024/01/23 12:13:47;;;;;;;0.20;0.20;;;8.80;99.90;;;;;;5069024;28;20522;-84
2024/01/23 12:16:14;;;;;;;0.20;0.20;;;8.80;99.90;;;;;;5071387;28;20428;-84
2024/01/23 12:18:40;;;;;;;0.20;0.20;;;8.60;99.90;;;;;;5054741;28;20432;-85
2024/01/23 12:21:06;;;;;;;0.20;0.20;;;8.70;99.90;;;;;;5075072;28;20423;-83
2024/01/23 12:23:33;;;;;;;0.20;0.20;;;8.90;99.90;;;;;;5073567;28;20697;-84
2024/01/23 12:25:59;;;;;;;0.20;0.20;;;8.90;99.90;;;;;;5068611;28;24305;-83
2024/01/23 12:28:26;;;;;;;0.20;0.20;;;8.90;99.90;;;;;;5073823;28;20758;-84
2024/01/23 12:30:52;;;;;;;0.20;0.20;;;9.00;99.90;;;;;;5073482;28;20416;-83
2024/01/23 12:33:18;;;;;;;0.20;0.20;;;9.00;99.90;;;;;;5074129;28;20466;-84
2024/01/23 12:35:46;;;;;;;0.20;0.20;;;8.90;99.90;;;;;;5056466;28;20424;-84
2024/01/23 12:38:16;;;;;;;0.20;0.20;;;9.20;99.90;;;;;;5073582;28;20475;-86
2024/01/23 12:40:42;;;;;;;0.20;0.20;;;9.20;99.90;;;;;;5054280;28;20446;-84
2024/01/23 12:43:09;;;;;;;0.20;0.20;;;9.20;99.90;;;;;;5067345;28;20852;-85
2024/01/23 12:45:34;;;;;;;0.20;0.20;;;9.20;99.90;;;;;;5072749;28;20420;-84
2024/01/23 12:48:00;;;;;;;0.20;0.20;;;8.80;99.90;;;;;;5070004;28;20493;-83
2024/01/23 12:50:26;;;;;;;0.20;0.20;;;8.80;99.90;;;;;;5061821;28;20183;-84
2024/01/23 12:52:56;;;;;;;0.20;0.20;;;9.20;99.90;;;;;;5062179;28;20255;-86